CheckWX is a tool to help pilots better visualize weather data.  It is not intended as a substitute for an official pre-flight weather briefing.

12:27:15 UTC

KTCC METAR
Tucumcari Municipal Airport
Tucumcari, New Mexico, USA
Current

34 mins ago

KTCC 181153Z AUTO 10018KT 10SM OVC027 M03/M08 A3008 RMK AO2 PK WND 09027/1114 SLP190 T10281078 10050 21028 53026
Observed
Feb-18 @ 11:53 UTC
Wind
  • 100° at 18 KTS
Visibility
10 SM
Flight Rules
MVFR
Cloud Levels
  • Overcast at 2,700' AGL
Temperature
-3°C / 27°F
Dewpoint
-8°C / 18°F
Humidity
69%
Altimeter
30.08" Hg
Pressure
1019 hPa
Previous

55 mins ago

KTCC 181132Z AUTO 10018KT 10SM BKN029 OVC100 M02/M08 A3007 RMK AO2 PK WND 09027/1114 T10221078
Observed
Feb-18 @ 11:32 UTC
Wind
  • 100° at 18 KTS
Visibility
10 SM
Flight Rules
MVFR
Cloud Levels
  • Broken at 2,900' AGL
  • Overcast at 10,000' AGL
Temperature
-2°C / 28°F
Dewpoint
-8°C / 18°F
Humidity
64%
Altimeter
30.07" Hg
Pressure
1018.32 hPa
Previous

2 hours ago

KTCC 181053Z AUTO 10020G27KT 10SM SCT034 OVC110 M02/M08 A3004 RMK AO2 PK WND 10027/1052 SLP170 T10171078
Observed
Feb-18 @ 10:53 UTC
Wind
  • 100° at 20 KTS
  • Gusting to 27 KTS
Visibility
10 SM
Flight Rules
VFR
Cloud Levels
  • Scattered at 3,400' AGL
  • Overcast at 11,000' AGL
Temperature
-2°C / 28°F
Dewpoint
-8°C / 18°F
Humidity
64%
Altimeter
30.04" Hg
Pressure
1017 hPa